Terminal Aerodrome Forecast
Issued by NWS Milwaukee/Sullivan, WI

Home | Current Version | Previous Version | Text Only | Print | Product List | Glossary On
Versions: 1 2 3 4 5 6 7 8 9 10 11 12 13 14 15 16 17 18 19 20 21 22 23 24 25 26 27 28 29 30 31 32 33 34 35 36 37 38 39 40 41 42 43 44 45 46 47 48 49 50
000
FTUS43 KMKX 262043 AAA
TAFMKE
TAF AMD
KMKE 262043Z 2621/2724 23007KT P6SM VCTS FEW030 BKN200 BKN250CB
     FM270000 20006KT P6SM -SHRA VCTS SCT035CB OVC090
     FM270200 17004KT P6SM VCTS SCT030CB OVC070
     FM270400 VRB03KT P6SM VCTS SCT035CB OVC090
     FM271100 01005KT 4SM BR BKN060
     FM271300 03006KT P6SM BKN040
     FM272100 03012KT P6SM SCT150=

USA.gov is the U.S. government's official web portal to all federal, state and local government web resources and services.